createdAt,value
2022-09-21T00:01:53.086Z,9.30
2022-09-21T00:04:20.510Z,10.57
2022-09-21T00:06:48.070Z,8.18
2022-09-21T00:09:16.161Z,10.02
2022-09-21T00:11:43.611Z,8.52
2022-09-21T00:14:13.359Z,7.00
2022-09-21T00:16:42.158Z,9.95
2022-09-21T00:19:10.503Z,10.18
2022-09-21T00:21:38.283Z,12.23
2022-09-21T00:24:07.061Z,9.60
2022-09-21T00:26:34.875Z,12.80
2022-09-21T00:29:03.505Z,13.32
2022-09-21T00:31:31.955Z,10.90
2022-09-21T00:34:00.223Z,12.25
2022-09-21T00:36:28.331Z,11.05
2022-09-21T00:38:59.074Z,9.18
2022-09-21T00:41:27.904Z,14.82
2022-09-21T00:44:32.664Z,10.00
2022-09-21T00:47:10.475Z,8.18
2022-09-21T00:49:38.619Z,7.57
2022-09-21T00:52:08.037Z,9.45
2022-09-21T00:54:40.918Z,10.55
2022-09-21T00:57:08.608Z,7.57
2022-09-21T00:59:38.363Z,9.65
2022-09-21T01:02:06.291Z,8.82
2022-09-21T01:04:34.792Z,11.30
2022-09-21T01:07:05.700Z,8.68
2022-09-21T01:09:33.220Z,10.38
2022-09-21T01:12:29.391Z,5.70
2022-09-21T01:15:03.454Z,9.48
2022-09-21T01:17:42.208Z,8.68
2022-09-21T01:20:44.835Z,6.93
2022-09-21T01:23:30.736Z,11.35
2022-09-21T01:26:40.644Z,9.60
2022-09-21T01:29:31.888Z,12.30
2022-09-21T01:32:02.307Z,14.82
2022-09-21T01:35:03.289Z,6.38
2022-09-21T01:37:52.678Z,12.27
2022-09-21T01:40:35.603Z,9.43
2022-09-21T01:43:05.555Z,8.30
2022-09-21T01:45:36.988Z,7.30
2022-09-21T01:48:05.331Z,7.60
2022-09-21T01:50:36.758Z,7.00
2022-09-21T01:53:29.975Z,11.05
2022-09-21T01:56:10.798Z,11.65
2022-09-21T01:58:53.229Z,6.95
2022-09-21T02:01:23.509Z,6.07
2022-09-21T02:03:57.691Z,10.30
2022-09-21T02:06:26.755Z,10.15
2022-09-21T02:08:54.013Z,8.88
2022-09-21T02:11:21.307Z,11.38
2022-09-21T02:13:50.976Z,10.40
2022-09-21T02:16:33.758Z,10.40
2022-09-21T02:19:30.492Z,9.38
2022-09-21T02:22:09.652Z,9.60
2022-09-21T02:24:56.135Z,6.28
2022-09-21T02:27:49.008Z,9.80
2022-09-21T02:30:19.982Z,9.30
2022-09-21T02:32:58.791Z,8.35
2022-09-21T02:35:46.567Z,10.93
2022-09-21T02:38:30.463Z,8.75
2022-09-21T02:41:07.028Z,14.82
2022-09-21T02:43:37.817Z,8.63
2022-09-21T02:46:12.191Z,7.53
2022-09-21T02:48:47.068Z,8.82
2022-09-21T02:51:18.483Z,11.57
2022-09-21T02:53:47.211Z,8.60
2022-09-21T02:56:14.862Z,10.88
2022-09-21T02:58:54.302Z,10.00
2022-09-21T03:01:22.732Z,10.60
2022-09-21T03:03:50.060Z,10.30
2022-09-21T03:06:17.331Z,8.77
2022-09-21T03:08:44.853Z,11.23
2022-09-21T03:11:19.233Z,12.40
2022-09-21T03:13:46.825Z,10.13
2022-09-21T03:16:14.358Z,10.50
2022-09-21T03:18:44.598Z,8.95
2022-09-21T03:21:12.464Z,9.10
2022-09-21T03:23:40.337Z,10.18
2022-09-21T03:26:08.467Z,8.18
2022-09-21T03:28:35.791Z,8.52
2022-09-21T03:31:03.278Z,9.63
2022-09-21T03:33:30.519Z,7.68
2022-09-21T03:35:58.078Z,12.05
2022-09-21T03:38:27.055Z,11.50
2022-09-21T03:40:58.079Z,10.70
2022-09-21T03:43:25.673Z,11.98
2022-09-21T03:45:54.044Z,12.68
2022-09-21T03:48:22.182Z,11.55
2022-09-21T03:50:49.700Z,11.18
2022-09-21T03:53:19.128Z,15.95
2022-09-21T03:55:46.401Z,12.37
2022-09-21T03:58:13.720Z,13.68
2022-09-21T04:00:41.088Z,14.45
2022-09-21T04:03:08.427Z,13.20
2022-09-21T04:05:39.085Z,14.90
2022-09-21T04:08:07.148Z,23.73
2022-09-21T04:10:34.467Z,27.63
2022-09-21T04:13:04.123Z,25.90
2022-09-21T04:15:31.545Z,25.13
2022-09-21T04:17:59.210Z,27.92
2022-09-21T04:20:26.617Z,18.83
2022-09-21T04:22:53.932Z,18.55
2022-09-21T04:25:21.263Z,16.88
2022-09-21T04:27:48.600Z,16.25
2022-09-21T04:30:16.410Z,18.35
2022-09-21T04:32:44.228Z,16.58
2022-09-21T04:35:11.652Z,15.70
2022-09-21T04:37:39.081Z,16.75
2022-09-21T04:40:07.677Z,19.00
2022-09-21T04:42:35.009Z,15.07
2022-09-21T04:45:02.397Z,16.13
2022-09-21T04:47:31.180Z,10.63
2022-09-21T04:49:58.709Z,13.18
2022-09-21T04:52:25.998Z,13.43
2022-09-21T04:54:53.337Z,10.38
2022-09-21T04:57:20.807Z,14.95
2022-09-21T04:59:48.366Z,11.73
2022-09-21T05:02:15.632Z,11.02
2022-09-21T05:04:45.455Z,15.10
2022-09-21T05:07:15.192Z,12.88
2022-09-21T05:10:01.199Z,14.35
2022-09-21T05:12:30.499Z,13.82
2022-09-21T05:14:57.834Z,15.10
2022-09-21T05:17:25.176Z,13.63
2022-09-21T05:19:53.433Z,19.52
2022-09-21T05:22:21.301Z,11.27
2022-09-21T05:24:48.655Z,11.80
2022-09-21T05:27:16.352Z,11.75
2022-09-21T05:29:44.003Z,18.25
2022-09-21T05:32:28.179Z,10.90
2022-09-21T05:35:49.847Z,20.77
2022-09-21T05:38:18.657Z,12.35
2022-09-21T05:40:47.690Z,13.98
2022-09-21T05:43:15.379Z,13.63
2022-09-21T05:45:47.909Z,12.32
2022-09-21T05:50:57.999Z,16.38
2022-09-21T05:53:53.471Z,13.25
2022-09-21T05:56:42.648Z,12.10
2022-09-21T05:59:25.429Z,11.48
2022-09-21T06:02:02.252Z,14.25
2022-09-21T06:04:29.967Z,11.82
2022-09-21T06:06:57.394Z,11.30
2022-09-21T06:09:26.968Z,17.85
2022-09-21T06:11:57.155Z,16.90
2022-09-21T06:14:25.685Z,12.23
2022-09-21T06:16:53.189Z,15.80
2022-09-21T06:19:20.479Z,18.30
2022-09-21T06:21:48.269Z,12.90
2022-09-21T06:24:15.668Z,15.63
2022-09-21T06:26:43.087Z,13.80
2022-09-21T06:29:10.471Z,15.82
2022-09-21T06:31:37.706Z,17.17
2022-09-21T06:34:05.161Z,13.98
2022-09-21T06:36:32.662Z,13.80
2022-09-21T06:39:00.020Z,17.08
2022-09-21T06:41:27.210Z,15.13
2022-09-21T06:43:56.043Z,18.15
2022-09-21T06:46:24.234Z,16.13
2022-09-21T06:48:51.536Z,18.25
2022-09-21T06:51:20.851Z,18.75
2022-09-21T06:53:48.690Z,14.50
2022-09-21T06:56:16.635Z,16.95
2022-09-21T06:58:43.994Z,18.23
2022-09-21T07:01:12.965Z,16.27
2022-09-21T07:03:41.973Z,17.98
2022-09-21T07:06:15.590Z,20.67
2022-09-21T07:11:31.520Z,15.77
2022-09-21T07:13:59.750Z,16.85
2022-09-21T07:16:28.063Z,17.75
2022-09-21T07:18:56.231Z,27.08
2022-09-21T07:21:24.254Z,22.67
2022-09-21T07:23:51.410Z,27.63
2022-09-21T07:26:18.730Z,26.33
2022-09-21T07:28:46.234Z,22.63
2022-09-21T07:31:15.661Z,19.42
2022-09-21T07:33:44.036Z,16.77
2022-09-21T07:36:13.164Z,20.23
2022-09-21T07:38:42.638Z,25.13
2022-09-21T07:41:12.283Z,23.55
2022-09-21T07:43:40.385Z,18.90
2022-09-21T07:46:12.662Z,20.60
2022-09-21T07:48:40.107Z,21.98
2022-09-21T07:51:09.950Z,22.83
2022-09-21T07:53:38.348Z,24.33
2022-09-21T07:56:07.854Z,23.60
2022-09-21T07:58:54.728Z,16.05
2022-09-21T08:01:22.939Z,25.08
2022-09-21T08:03:54.962Z,20.45
2022-09-21T08:06:23.844Z,17.92
2022-09-21T08:08:56.726Z,17.23
2022-09-21T08:11:27.686Z,17.52
2022-09-21T08:13:57.905Z,21.58
2022-09-21T08:16:26.209Z,18.38
2022-09-21T08:18:53.878Z,21.85
2022-09-21T08:21:21.979Z,18.38
2022-09-21T08:23:51.994Z,21.20
2022-09-21T08:26:20.866Z,24.63
2022-09-21T08:28:51.538Z,24.60
2022-09-21T08:31:20.401Z,19.35
2022-09-21T08:33:49.132Z,15.45
2022-09-21T08:36:17.007Z,20.48
2022-09-21T08:38:44.271Z,17.67
2022-09-21T08:41:18.945Z,20.48
2022-09-21T08:44:03.800Z,17.90
2022-09-21T08:46:32.887Z,17.63
2022-09-21T08:49:04.375Z,16.58
2022-09-21T08:51:35.566Z,21.23
2022-09-21T08:54:21.246Z,24.33
2022-09-21T08:57:04.611Z,23.90
2022-09-21T08:59:34.318Z,22.48
2022-09-21T09:02:13.815Z,24.17
2022-09-21T09:04:57.695Z,20.35
2022-09-21T09:07:37.252Z,22.05
2022-09-21T09:10:22.117Z,19.63
2022-09-21T09:13:20.606Z,21.35
2022-09-21T09:16:26.393Z,20.55
2022-09-21T09:19:32.778Z,14.85
2022-09-21T09:22:02.454Z,16.60
2022-09-21T09:24:39.113Z,13.88
2022-09-21T09:27:15.297Z,18.77
2022-09-21T09:30:03.736Z,18.38
2022-09-21T09:33:00.590Z,21.27
2022-09-21T09:35:46.113Z,17.67
2022-09-21T09:38:26.917Z,24.08
2022-09-21T09:41:11.328Z,13.38
2022-09-21T09:43:46.630Z,22.90
2022-09-21T09:46:38.662Z,25.95
2022-09-21T09:49:35.876Z,12.52
2022-09-21T09:52:04.127Z,11.13
2022-09-21T09:54:34.377Z,10.48
2022-09-21T09:59:43.103Z,14.15
2022-09-21T10:02:25.111Z,15.13
2022-09-21T10:04:58.349Z,16.65
2022-09-21T10:07:43.108Z,11.82
2022-09-21T10:10:28.904Z,13.70
2022-09-21T10:13:03.042Z,12.43
2022-09-21T10:15:30.617Z,20.92
2022-09-21T10:18:15.353Z,17.10
2022-09-21T10:21:23.651Z,12.43
2022-09-21T10:23:59.654Z,11.73
2022-09-21T10:26:37.146Z,10.35
2022-09-21T10:29:21.325Z,12.48
2022-09-21T10:32:01.838Z,13.05
2022-09-21T10:34:31.453Z,11.23
2022-09-21T10:37:01.571Z,13.40
2022-09-21T10:39:31.461Z,12.98
2022-09-21T10:42:05.329Z,11.33
2022-09-21T10:44:41.440Z,8.63
2022-09-21T10:47:17.864Z,10.65
2022-09-21T10:49:51.231Z,10.95
2022-09-21T10:52:24.967Z,8.88
2022-09-21T10:54:55.503Z,11.90
2022-09-21T10:57:24.903Z,10.88
2022-09-21T10:59:52.137Z,12.43
2022-09-21T11:02:33.120Z,13.25
2022-09-21T11:05:14.902Z,12.57
2022-09-21T11:07:57.152Z,10.25
2022-09-21T11:10:46.638Z,16.58
2022-09-21T11:13:36.827Z,13.50
2022-09-21T11:18:40.639Z,11.82
2022-09-21T11:21:41.812Z,10.52
2022-09-21T11:24:46.876Z,12.00
2022-09-21T11:27:21.824Z,10.70
2022-09-21T11:29:52.492Z,29.20
2022-09-21T11:32:37.867Z,9.70
2022-09-21T11:35:33.156Z,7.82
2022-09-21T11:38:22.504Z,33.97
2022-09-21T11:40:54.570Z,21.27
2022-09-21T11:43:52.644Z,6.65
2022-09-21T11:46:30.324Z,8.10
2022-09-21T11:49:12.722Z,7.95
2022-09-21T11:52:21.403Z,11.73
2022-09-21T11:55:00.608Z,10.00
2022-09-21T11:57:36.189Z,22.75
2022-09-21T12:00:11.621Z,12.00
2022-09-21T12:03:07.597Z,10.80
2022-09-21T12:06:04.812Z,10.88
2022-09-21T12:08:32.147Z,13.70
2022-09-21T12:11:21.218Z,13.07
2022-09-21T12:14:12.976Z,13.77
2022-09-21T12:17:25.388Z,10.32
2022-09-21T12:20:11.323Z,17.25
2022-09-21T12:22:43.956Z,17.20
2022-09-21T12:25:25.611Z,18.05
2022-09-21T12:28:11.145Z,7.20
2022-09-21T12:30:44.662Z,10.48
2022-09-21T12:33:37.191Z,8.00
2022-09-21T12:36:07.353Z,8.63
2022-09-21T12:38:53.319Z,8.57
2022-09-21T12:41:34.343Z,9.02
2022-09-21T12:44:01.661Z,8.63
2022-09-21T12:46:32.593Z,5.00
2022-09-21T12:49:02.231Z,7.95
2022-09-21T12:51:41.590Z,9.27
2022-09-21T12:54:20.955Z,5.82
2022-09-21T12:56:56.562Z,12.80
2022-09-21T12:59:50.045Z,5.82
2022-09-21T13:02:21.855Z,19.00
2022-09-21T13:05:14.068Z,16.25
2022-09-21T13:08:08.662Z,13.27
2022-09-21T13:10:51.688Z,17.58
2022-09-21T13:13:26.895Z,8.85
2022-09-21T13:15:55.175Z,8.73
2022-09-21T13:18:36.348Z,12.32
2022-09-21T13:21:18.687Z,10.38
2022-09-21T13:23:55.353Z,10.30
2022-09-21T13:27:00.089Z,33.47
2022-09-21T13:29:57.148Z,10.63
2022-09-21T13:32:27.279Z,15.73
2022-09-21T13:35:42.212Z,13.27
2022-09-21T13:38:33.179Z,11.60
2022-09-21T13:41:40.264Z,10.05
2022-09-21T13:44:40.996Z,9.07
2022-09-21T13:47:09.089Z,7.38
2022-09-21T13:49:45.900Z,7.72
2022-09-21T13:52:13.174Z,8.32
2022-09-21T13:54:58.872Z,6.43
2022-09-21T13:58:05.230Z,7.30
2022-09-21T14:00:36.544Z,7.25
2022-09-21T14:03:25.506Z,7.65
2022-09-21T14:06:02.966Z,11.93
2022-09-21T14:08:38.667Z,8.00
2022-09-21T14:11:16.320Z,14.18
2022-09-21T14:14:02.806Z,7.45
2022-09-21T14:16:42.118Z,5.03
2022-09-21T14:19:17.985Z,9.20
2022-09-21T14:22:03.788Z,6.35
2022-09-21T14:24:44.791Z,6.22
2022-09-21T14:27:49.285Z,6.05
2022-09-21T14:30:20.074Z,7.72
2022-09-21T14:32:59.987Z,8.48
2022-09-21T14:35:33.800Z,8.85
2022-09-21T14:38:13.897Z,7.90
2022-09-21T14:40:49.449Z,3.55
2022-09-21T14:43:29.828Z,7.55
2022-09-21T14:46:16.848Z,9.45
2022-09-21T14:48:54.351Z,5.90
2022-09-21T14:51:40.819Z,5.05
2022-09-21T14:54:31.290Z,9.05
2022-09-21T14:57:15.513Z,5.18
2022-09-21T15:00:14.334Z,6.55
2022-09-21T15:02:44.755Z,4.72
2022-09-21T15:05:14.975Z,5.95
2022-09-21T15:11:09.585Z,7.25
2022-09-21T15:14:09.983Z,6.88
2022-09-21T15:16:38.084Z,5.40
2022-09-21T15:19:28.923Z,6.70
2022-09-21T15:21:57.217Z,6.97
2022-09-21T15:24:34.229Z,4.88
2022-09-21T15:27:34.628Z,3.95
2022-09-21T15:32:38.473Z,7.88
2022-09-21T15:35:07.973Z,5.82
2022-09-21T15:37:45.937Z,6.13
2022-09-21T15:40:32.523Z,5.63
2022-09-21T15:43:23.592Z,8.45
2022-09-21T15:45:57.473Z,4.53
2022-09-21T15:48:36.524Z,5.78
2022-09-21T15:51:28.034Z,5.38
2022-09-21T15:54:21.980Z,4.55
2022-09-21T15:56:55.112Z,7.50
2022-09-21T15:59:25.665Z,10.02
2022-09-21T16:01:57.675Z,11.10
2022-09-21T16:04:27.337Z,7.53
2022-09-21T16:07:10.223Z,5.70
2022-09-21T16:09:45.117Z,5.28
2022-09-21T16:12:33.029Z,5.97
2022-09-21T16:15:04.598Z,5.03
2022-09-21T16:17:37.832Z,5.10
2022-09-21T16:20:10.542Z,5.50
2022-09-21T16:22:39.737Z,7.25
2022-09-21T16:25:38.829Z,4.10
2022-09-21T16:28:30.681Z,4.25
2022-09-21T16:30:59.175Z,4.63
2022-09-21T16:33:47.277Z,7.93
2022-09-21T16:36:22.310Z,3.55
2022-09-21T16:39:06.105Z,7.15
2022-09-21T16:41:36.294Z,5.82
2022-09-21T16:46:36.384Z,5.47
2022-09-21T16:49:05.278Z,4.45
2022-09-21T16:51:33.120Z,6.03
2022-09-21T16:54:03.002Z,7.03
2022-09-21T16:56:32.639Z,7.30
2022-09-21T16:59:00.347Z,9.40
2022-09-21T17:01:27.990Z,7.80
2022-09-21T17:03:56.798Z,5.68
2022-09-21T17:06:24.284Z,7.75
2022-09-21T17:08:51.696Z,8.27
2022-09-21T17:11:22.180Z,6.63
2022-09-21T17:13:50.565Z,5.00
2022-09-21T17:16:22.060Z,5.47
2022-09-21T17:18:52.263Z,5.22
2022-09-21T17:21:19.837Z,4.53
2022-09-21T17:23:50.176Z,5.78
2022-09-21T17:28:48.481Z,7.43
2022-09-21T17:31:16.885Z,5.28
2022-09-21T17:33:44.861Z,7.13
2022-09-21T17:36:16.193Z,6.47
2022-09-21T17:38:44.434Z,3.83
2022-09-21T17:41:21.214Z,3.30
2022-09-21T17:44:18.800Z,5.57
2022-09-21T17:47:09.690Z,8.20
2022-09-21T17:49:39.433Z,9.30
2022-09-21T17:52:46.044Z,6.80
2022-09-21T17:55:14.018Z,6.93
2022-09-21T17:58:27.450Z,9.73
2022-09-21T18:01:12.110Z,8.27
2022-09-21T18:03:44.847Z,6.75
2022-09-21T18:06:15.686Z,6.30
2022-09-21T18:08:43.344Z,5.53
2022-09-21T18:11:44.389Z,9.50
2022-09-21T18:14:48.344Z,7.30
2022-09-21T18:17:50.240Z,12.13
2022-09-21T18:20:57.796Z,6.47
2022-09-21T18:23:48.231Z,6.90
2022-09-21T18:28:58.096Z,7.38
2022-09-21T18:31:43.731Z,6.70
2022-09-21T18:34:32.277Z,14.98
2022-09-21T18:37:29.853Z,6.93
2022-09-21T18:40:22.554Z,7.28
2022-09-21T18:42:55.948Z,6.57
2022-09-21T18:45:40.324Z,9.18
2022-09-21T18:48:48.490Z,6.88
2022-09-21T18:51:29.380Z,8.45
2022-09-21T18:54:01.896Z,14.43
2022-09-21T18:56:40.861Z,9.60
2022-09-21T18:59:16.608Z,8.15
2022-09-21T19:01:47.149Z,10.13
2022-09-21T19:04:17.282Z,7.18
2022-09-21T19:07:06.542Z,8.20
2022-09-21T19:10:15.939Z,8.43
2022-09-21T19:13:31.758Z,8.85
2022-09-21T19:16:14.328Z,10.15
2022-09-21T19:18:50.891Z,11.35
2022-09-21T19:22:02.965Z,8.63
2022-09-21T19:24:56.968Z,8.73
2022-09-21T19:27:50.116Z,8.95
2022-09-21T19:30:20.819Z,7.35
2022-09-21T19:32:48.330Z,10.02
2022-09-21T19:35:25.126Z,7.32
2022-09-21T19:37:54.621Z,10.35
2022-09-21T19:40:28.332Z,11.82
2022-09-21T19:43:18.905Z,10.40
2022-09-21T19:46:14.387Z,8.25
2022-09-21T19:48:44.259Z,8.93
2022-09-21T19:51:18.885Z,10.18
2022-09-21T19:54:12.417Z,10.40
2022-09-21T19:57:05.271Z,9.80
2022-09-21T19:59:45.717Z,10.43
2022-09-21T20:02:45.513Z,9.98
2022-09-21T20:05:20.004Z,8.95
2022-09-21T20:07:53.431Z,9.75
2022-09-21T20:10:23.038Z,7.22
2022-09-21T20:13:14.815Z,9.52
2022-09-21T20:15:54.353Z,9.07
2022-09-21T20:18:28.521Z,8.70
2022-09-21T20:20:58.892Z,9.50
2022-09-21T20:23:29.009Z,9.73
2022-09-21T20:26:01.085Z,10.15
2022-09-21T20:28:28.855Z,8.80
2022-09-21T20:30:56.340Z,12.65
2022-09-21T20:33:24.796Z,8.25
2022-09-21T20:35:55.519Z,8.82
2022-09-21T20:38:23.224Z,15.10
2022-09-21T20:40:51.669Z,9.38
2022-09-21T20:43:23.077Z,9.70
2022-09-21T20:45:59.555Z,6.50
2022-09-21T20:48:30.466Z,15.13
2022-09-21T20:50:59.156Z,6.90
2022-09-21T20:53:26.387Z,11.63
2022-09-21T20:55:55.412Z,9.18
2022-09-21T20:58:22.836Z,12.25
2022-09-21T21:00:58.603Z,7.55
2022-09-21T21:03:46.613Z,9.35
2022-09-21T21:06:16.627Z,7.95
2022-09-21T21:08:44.078Z,8.95
2022-09-21T21:11:11.461Z,8.85
2022-09-21T21:13:38.910Z,10.20
2022-09-21T21:16:11.555Z,10.75
2022-09-21T21:18:40.836Z,9.45
2022-09-21T21:21:08.275Z,9.48
2022-09-21T21:23:54.048Z,10.30
2022-09-21T21:26:33.359Z,7.07
2022-09-21T21:29:09.022Z,8.82
2022-09-21T21:31:36.421Z,10.07
2022-09-21T21:34:03.903Z,10.18
2022-09-21T21:36:31.665Z,10.13
2022-09-21T21:38:59.114Z,9.50
2022-09-21T21:41:26.390Z,10.95
2022-09-21T21:43:53.737Z,10.50
2022-09-21T21:46:21.167Z,10.18
2022-09-21T21:48:48.731Z,10.65
2022-09-21T21:51:16.064Z,9.45
2022-09-21T21:53:43.798Z,9.35
2022-09-21T21:56:18.996Z,8.55
2022-09-21T21:58:46.605Z,11.10
2022-09-21T22:01:19.580Z,16.40
2022-09-21T22:03:48.067Z,11.00
2022-09-21T22:06:15.294Z,10.43
2022-09-21T22:08:43.162Z,14.60
2022-09-21T22:11:10.932Z,8.70
2022-09-21T22:13:39.702Z,9.07
2022-09-21T22:16:12.591Z,14.25
2022-09-21T22:18:40.186Z,7.85
2022-09-21T22:21:22.163Z,7.75
2022-09-21T22:23:54.028Z,9.38
2022-09-21T22:26:22.041Z,9.35
2022-09-21T22:28:52.278Z,10.55
2022-09-21T22:33:48.788Z,11.98
2022-09-21T22:36:18.724Z,14.02
2022-09-21T22:38:46.625Z,13.73
2022-09-21T22:41:18.770Z,10.05
2022-09-21T22:43:47.485Z,13.77
2022-09-21T22:46:18.250Z,13.18
2022-09-21T22:48:46.054Z,12.23
2022-09-21T22:51:14.398Z,12.07
2022-09-21T22:53:42.230Z,11.05
2022-09-21T22:56:15.737Z,11.32
2022-09-21T22:58:45.489Z,12.18
2022-09-21T23:01:18.249Z,11.70
2022-09-21T23:04:13.249Z,9.52
2022-09-21T23:06:49.138Z,11.98
2022-09-21T23:09:31.336Z,9.45
2022-09-21T23:12:04.555Z,12.20
2022-09-21T23:14:31.721Z,13.93
2022-09-21T23:16:58.987Z,10.77
2022-09-21T23:19:26.507Z,10.45
2022-09-21T23:21:53.979Z,13.98
2022-09-21T23:24:21.899Z,9.95
2022-09-21T23:26:51.184Z,9.77
2022-09-21T23:29:18.526Z,11.87
2022-09-21T23:31:46.527Z,10.57
2022-09-21T23:34:15.785Z,13.43
2022-09-21T23:36:43.918Z,13.75
2022-09-21T23:39:13.108Z,12.80
2022-09-21T23:41:40.537Z,11.98
2022-09-21T23:44:08.200Z,10.85
2022-09-21T23:46:37.048Z,11.43
2022-09-21T23:49:04.828Z,12.55
2022-09-21T23:51:32.253Z,8.95
2022-09-21T23:54:00.222Z,9.65
2022-09-21T23:56:28.594Z,13.35
2022-09-21T23:58:56.387Z,9.93
